createdAt,value
2022-08-17T00:01:51.754Z,2.28
2022-08-17T00:04:41.453Z,2.60
2022-08-17T00:07:28.375Z,2.45
2022-08-17T00:10:15.309Z,3.05
2022-08-17T00:13:07.976Z,2.85
2022-08-17T00:16:01.457Z,2.58
2022-08-17T00:19:02.000Z,3.10
2022-08-17T00:22:33.213Z,2.55
2022-08-17T00:25:12.947Z,2.28
2022-08-17T00:27:59.911Z,2.47
2022-08-17T00:30:52.845Z,2.50
2022-08-17T00:33:42.376Z,3.10
2022-08-17T00:39:10.068Z,2.25
2022-08-17T00:41:59.277Z,2.35
2022-08-17T00:44:46.502Z,2.38
2022-08-17T00:47:33.660Z,2.50
2022-08-17T00:50:20.631Z,2.33
2022-08-17T00:53:12.564Z,2.92
2022-08-17T00:56:02.912Z,2.60
2022-08-17T00:58:52.235Z,3.10
2022-08-17T01:01:39.569Z,3.10
2022-08-17T01:04:36.212Z,2.67
2022-08-17T01:07:24.719Z,2.75
2022-08-17T01:10:58.228Z,2.50
2022-08-17T01:13:25.164Z,3.03
2022-08-17T01:16:31.544Z,2.85
2022-08-17T01:19:22.666Z,2.60
2022-08-17T01:22:12.549Z,2.42
2022-08-17T01:25:02.023Z,2.28
2022-08-17T01:27:51.206Z,2.45
2022-08-17T01:30:57.297Z,2.50
2022-08-17T01:33:46.219Z,2.53
2022-08-17T01:36:35.851Z,2.40
2022-08-17T01:39:28.575Z,2.63
2022-08-17T01:42:25.949Z,2.75
2022-08-17T01:45:17.816Z,2.28
2022-08-17T01:48:04.925Z,2.70
2022-08-17T01:50:52.640Z,2.60
2022-08-17T01:53:42.698Z,2.28
2022-08-17T01:56:30.394Z,2.17
2022-08-17T01:59:19.367Z,1.88
2022-08-17T02:02:07.386Z,2.30
2022-08-17T02:04:54.224Z,2.72
2022-08-17T02:07:56.015Z,2.35
2022-08-17T02:10:48.828Z,2.15
2022-08-17T02:13:35.756Z,2.90
2022-08-17T02:16:22.581Z,2.28
2022-08-17T02:19:12.883Z,2.55
2022-08-17T02:21:59.714Z,2.75
2022-08-17T02:24:59.568Z,2.50
2022-08-17T02:27:48.745Z,3.05
2022-08-17T02:31:00.816Z,2.22
2022-08-17T02:33:41.521Z,2.92
2022-08-17T02:36:12.221Z,2.42
2022-08-17T02:38:41.631Z,2.47
2022-08-17T02:41:09.415Z,2.30
2022-08-17T02:43:38.959Z,2.47
2022-08-17T02:46:08.006Z,2.88
2022-08-17T02:48:34.558Z,2.60
2022-08-17T02:51:01.408Z,2.10
2022-08-17T02:53:35.940Z,2.65
2022-08-17T02:58:35.522Z,2.22
2022-08-17T03:01:05.157Z,2.78
2022-08-17T03:03:31.985Z,2.63
2022-08-17T03:06:01.267Z,3.13
2022-08-17T03:08:30.421Z,2.47
2022-08-17T03:10:57.188Z,2.20
2022-08-17T03:13:27.150Z,2.78
2022-08-17T03:15:53.965Z,2.17
2022-08-17T03:18:24.628Z,3.65
2022-08-17T03:20:54.113Z,2.75
2022-08-17T03:23:24.139Z,3.00
2022-08-17T03:25:52.906Z,3.15
2022-08-17T03:28:19.717Z,2.60
2022-08-17T03:30:46.372Z,3.08
2022-08-17T03:33:13.078Z,2.65
2022-08-17T03:35:42.015Z,2.83
2022-08-17T03:38:15.302Z,3.00
2022-08-17T03:40:56.705Z,2.90
2022-08-17T03:43:32.694Z,2.50
2022-08-17T03:46:34.253Z,2.13
2022-08-17T03:49:25.673Z,2.80
2022-08-17T03:52:12.491Z,2.53
2022-08-17T03:54:58.386Z,3.10
2022-08-17T03:57:27.315Z,2.88
2022-08-17T03:59:55.224Z,2.85
2022-08-17T04:02:25.607Z,2.47
2022-08-17T04:04:52.717Z,2.88
2022-08-17T04:07:24.955Z,3.00
2022-08-17T04:09:51.729Z,3.10
2022-08-17T04:12:21.130Z,3.00
2022-08-17T04:14:53.000Z,2.55
2022-08-17T04:17:27.208Z,2.40
2022-08-17T04:19:59.357Z,2.55
2022-08-17T04:22:30.333Z,2.80
2022-08-17T04:25:02.470Z,3.15
2022-08-17T04:27:28.986Z,3.55
2022-08-17T04:29:56.194Z,3.28
2022-08-17T04:33:03.605Z,3.13
2022-08-17T04:35:11.667Z,3.83
2022-08-17T04:37:38.172Z,2.97
2022-08-17T04:40:27.437Z,2.78
2022-08-17T04:43:08.916Z,2.75
2022-08-17T04:45:55.701Z,2.50
2022-08-17T04:48:28.087Z,3.08
2022-08-17T04:51:04.087Z,3.28
2022-08-17T04:53:30.640Z,3.17
2022-08-17T04:55:58.947Z,3.25
2022-08-17T04:58:25.845Z,3.83
2022-08-17T05:00:52.563Z,2.40
2022-08-17T05:03:21.493Z,3.47
2022-08-17T05:05:53.657Z,3.10
2022-08-17T05:08:21.520Z,2.78
2022-08-17T05:10:50.691Z,3.10
2022-08-17T05:13:20.512Z,3.58
2022-08-17T05:15:49.395Z,3.40
2022-08-17T05:18:19.178Z,3.42
2022-08-17T05:20:48.140Z,3.40
2022-08-17T05:23:23.222Z,2.88
2022-08-17T05:25:51.810Z,3.38
2022-08-17T05:28:22.908Z,3.03
2022-08-17T05:30:58.713Z,3.28
2022-08-17T05:33:28.763Z,2.58
2022-08-17T05:36:05.038Z,3.20
2022-08-17T05:38:34.168Z,4.05
2022-08-17T05:41:05.397Z,2.95
2022-08-17T05:43:35.201Z,4.50
2022-08-17T05:46:22.165Z,3.55
2022-08-17T05:48:52.623Z,2.88
2022-08-17T05:51:42.630Z,4.13
2022-08-17T05:54:20.416Z,4.45
2022-08-17T05:56:58.110Z,4.57
2022-08-17T05:59:53.355Z,3.53
2022-08-17T06:02:45.539Z,3.58
2022-08-17T06:05:34.251Z,3.85
2022-08-17T06:08:19.242Z,2.67
2022-08-17T06:11:04.071Z,2.58
2022-08-17T06:13:58.686Z,2.78
2022-08-17T06:16:34.829Z,2.13
2022-08-17T06:19:17.046Z,2.25
2022-08-17T06:21:47.884Z,2.72
2022-08-17T06:24:23.853Z,2.40
2022-08-17T06:26:55.822Z,3.72
2022-08-17T06:29:27.151Z,2.42
2022-08-17T06:31:53.684Z,2.38
2022-08-17T06:34:22.460Z,2.15
2022-08-17T06:37:17.085Z,2.13
2022-08-17T06:39:48.599Z,2.08
2022-08-17T06:42:59.870Z,2.37
2022-08-17T06:45:36.961Z,2.35
2022-08-17T06:48:12.533Z,2.80
2022-08-17T06:50:52.290Z,2.30
2022-08-17T06:53:32.798Z,1.90
2022-08-17T06:56:13.472Z,2.47
2022-08-17T06:58:43.293Z,2.35
2022-08-17T07:01:18.115Z,1.90
2022-08-17T07:03:54.503Z,2.03
2022-08-17T07:06:24.982Z,2.10
2022-08-17T07:09:10.202Z,1.40
2022-08-17T07:14:48.115Z,1.88
2022-08-17T07:17:18.250Z,1.73
2022-08-17T07:19:55.554Z,2.00
2022-08-17T07:22:25.529Z,1.75
2022-08-17T07:24:53.484Z,1.90
2022-08-17T07:27:25.047Z,1.48
2022-08-17T07:29:59.420Z,1.95
2022-08-17T07:32:37.400Z,1.73
2022-08-17T07:35:15.366Z,2.00
2022-08-17T07:37:54.021Z,2.40
2022-08-17T07:40:26.966Z,1.63
2022-08-17T07:43:22.328Z,1.38
2022-08-17T07:46:29.878Z,1.52
2022-08-17T07:49:16.283Z,2.10
2022-08-17T07:51:42.732Z,1.83
2022-08-17T07:54:15.387Z,1.80
2022-08-17T07:56:47.108Z,1.45
2022-08-17T07:59:28.660Z,2.30
2022-08-17T08:02:05.384Z,1.67
2022-08-17T08:05:02.112Z,0.85
2022-08-17T08:07:43.206Z,1.40
2022-08-17T08:10:13.717Z,3.15
2022-08-17T08:12:46.912Z,1.67
2022-08-17T08:15:23.272Z,1.73
2022-08-17T08:17:50.053Z,1.65
2022-08-17T08:20:42.417Z,1.50
2022-08-17T08:23:15.538Z,1.40
2022-08-17T08:25:53.316Z,1.33
2022-08-17T08:28:44.925Z,1.63
2022-08-17T08:31:32.145Z,1.27
2022-08-17T08:34:09.339Z,1.77
2022-08-17T08:37:17.715Z,1.20
2022-08-17T08:40:24.756Z,1.38
2022-08-17T08:43:53.053Z,1.75
2022-08-17T08:47:08.994Z,1.67
2022-08-17T08:50:30.151Z,1.23
2022-08-17T08:53:09.259Z,1.23
2022-08-17T08:55:36.582Z,1.35
2022-08-17T08:58:31.538Z,1.50
2022-08-17T09:00:59.780Z,1.30
2022-08-17T09:04:16.982Z,1.48
2022-08-17T09:06:59.285Z,1.40
2022-08-17T09:09:49.500Z,1.35
2022-08-17T09:12:35.605Z,1.52
2022-08-17T09:15:20.592Z,1.13
2022-08-17T09:18:08.650Z,1.75
2022-08-17T09:20:50.237Z,1.13
2022-08-17T09:23:30.320Z,0.90
2022-08-17T09:26:13.484Z,1.20
2022-08-17T09:28:49.204Z,0.95
2022-08-17T09:31:23.982Z,0.82
2022-08-17T09:33:58.586Z,0.93
2022-08-17T09:36:35.514Z,0.82
2022-08-17T09:39:08.589Z,1.20
2022-08-17T09:41:48.707Z,0.73
2022-08-17T09:44:27.219Z,1.10
2022-08-17T09:47:04.505Z,1.27
2022-08-17T09:49:37.494Z,1.13
2022-08-17T09:52:13.697Z,1.33
2022-08-17T09:54:41.215Z,1.20
2022-08-17T09:57:29.650Z,1.27
2022-08-17T10:00:21.333Z,0.90
2022-08-17T10:02:50.427Z,1.15
2022-08-17T10:05:38.482Z,1.02
2022-08-17T10:08:43.457Z,1.25
2022-08-17T10:11:51.350Z,1.23
2022-08-17T10:14:53.325Z,0.70
2022-08-17T10:17:35.075Z,0.90
2022-08-17T10:20:25.584Z,0.88
2022-08-17T10:23:26.856Z,1.08
2022-08-17T10:26:16.544Z,1.25
2022-08-17T10:28:52.665Z,1.40
2022-08-17T10:31:34.582Z,1.10
2022-08-17T10:34:22.659Z,1.48
2022-08-17T10:37:06.624Z,1.30
2022-08-17T10:39:52.721Z,1.15
2022-08-17T10:42:52.364Z,1.05
2022-08-17T10:45:23.397Z,1.10
2022-08-17T10:48:06.322Z,1.30
2022-08-17T10:50:49.368Z,1.67
2022-08-17T10:53:31.149Z,0.90
2022-08-17T10:56:17.403Z,1.00
2022-08-17T10:59:30.224Z,1.33
2022-08-17T11:02:08.852Z,1.17
2022-08-17T11:05:16.822Z,1.10
2022-08-17T11:08:25.935Z,1.20
2022-08-17T11:11:14.533Z,1.30
2022-08-17T11:14:06.766Z,1.38
2022-08-17T11:16:51.560Z,0.40
2022-08-17T11:19:39.737Z,1.13
2022-08-17T11:22:33.414Z,1.30
2022-08-17T11:25:35.576Z,1.10
2022-08-17T11:28:25.599Z,1.35
2022-08-17T11:30:59.355Z,1.13
2022-08-17T11:33:29.592Z,1.23
2022-08-17T11:36:19.614Z,1.23
2022-08-17T11:39:03.031Z,1.55
2022-08-17T11:41:56.029Z,1.27
2022-08-17T11:44:40.508Z,1.53
2022-08-17T11:47:41.953Z,1.25
2022-08-17T11:50:30.119Z,0.70
2022-08-17T11:52:56.751Z,1.30
2022-08-17T11:55:35.820Z,1.70
2022-08-17T11:58:23.689Z,1.13
2022-08-17T12:00:52.085Z,1.40
2022-08-17T12:03:26.611Z,1.30
2022-08-17T12:06:05.613Z,0.98
2022-08-17T12:08:34.350Z,0.90
2022-08-17T12:11:00.875Z,0.65
2022-08-17T12:13:34.638Z,0.73
2022-08-17T12:16:08.201Z,0.88
2022-08-17T12:18:39.510Z,1.13
2022-08-17T12:21:30.724Z,1.25
2022-08-17T12:24:15.861Z,1.07
2022-08-17T12:26:51.590Z,0.57
2022-08-17T12:29:38.392Z,1.08
2022-08-17T12:32:16.498Z,1.00
2022-08-17T12:34:45.303Z,1.20
2022-08-17T12:37:22.709Z,1.15
2022-08-17T12:39:57.943Z,1.30
2022-08-17T12:42:29.821Z,0.98
2022-08-17T12:44:56.833Z,1.40
2022-08-17T12:47:23.701Z,1.77
2022-08-17T12:49:55.154Z,1.15
2022-08-17T12:52:25.892Z,1.30
2022-08-17T12:55:06.141Z,1.37
2022-08-17T12:57:51.596Z,0.90
2022-08-17T13:00:25.336Z,1.25
2022-08-17T13:03:09.452Z,1.23
2022-08-17T13:06:06.097Z,1.00
2022-08-17T13:08:44.356Z,1.33
2022-08-17T13:11:13.608Z,1.45
2022-08-17T13:13:44.072Z,1.00
2022-08-17T13:16:19.205Z,1.25
2022-08-17T13:18:54.388Z,1.40
2022-08-17T13:21:23.778Z,1.08
2022-08-17T13:24:05.859Z,1.80
2022-08-17T13:26:44.866Z,1.17
2022-08-17T13:29:36.989Z,1.40
2022-08-17T13:32:13.574Z,1.45
2022-08-17T13:35:13.082Z,1.08
2022-08-17T13:38:04.910Z,1.55
2022-08-17T13:40:35.749Z,1.50
2022-08-17T13:43:05.423Z,1.90
2022-08-17T13:45:38.939Z,1.20
2022-08-17T13:48:08.688Z,2.55
2022-08-17T13:50:40.349Z,1.23
2022-08-17T13:53:31.347Z,1.50
2022-08-17T13:56:07.438Z,1.55
2022-08-17T13:58:56.162Z,0.68
2022-08-17T14:01:34.337Z,1.23
2022-08-17T14:04:08.196Z,1.63
2022-08-17T14:07:01.209Z,1.02
2022-08-17T14:09:36.823Z,1.83
2022-08-17T14:12:10.514Z,1.40
2022-08-17T14:14:42.943Z,1.52
2022-08-17T14:17:10.635Z,1.38
2022-08-17T14:19:42.254Z,1.05
2022-08-17T14:22:23.643Z,1.17
2022-08-17T14:24:51.688Z,1.42
2022-08-17T14:27:20.358Z,1.45
2022-08-17T14:29:50.176Z,1.40
2022-08-17T14:32:25.791Z,1.42
2022-08-17T14:34:57.666Z,1.65
2022-08-17T14:37:27.896Z,1.13
2022-08-17T14:39:59.773Z,1.42
2022-08-17T14:42:29.662Z,1.15
2022-08-17T14:44:58.686Z,1.25
2022-08-17T14:47:30.511Z,1.33
2022-08-17T14:52:26.014Z,1.20
2022-08-17T14:54:53.091Z,1.25
2022-08-17T14:57:24.612Z,1.15
2022-08-17T15:00:01.214Z,1.20
2022-08-17T15:02:42.090Z,2.33
2022-08-17T15:05:08.979Z,0.68
2022-08-17T15:07:37.971Z,0.68
2022-08-17T15:10:12.519Z,1.45
2022-08-17T15:12:43.981Z,1.00
2022-08-17T15:15:13.781Z,1.40
2022-08-17T15:17:44.781Z,1.48
2022-08-17T15:22:50.084Z,1.33
2022-08-17T15:25:17.991Z,1.58
2022-08-17T15:27:44.630Z,1.30
2022-08-17T15:30:11.964Z,1.65
2022-08-17T15:32:40.799Z,1.25
2022-08-17T15:35:09.096Z,1.73
2022-08-17T15:37:38.887Z,1.05
2022-08-17T15:40:07.645Z,1.45
2022-08-17T15:42:37.503Z,1.33
2022-08-17T15:45:16.876Z,1.40
2022-08-17T15:47:46.441Z,1.10
2022-08-17T15:50:15.299Z,1.50
2022-08-17T15:52:44.777Z,1.70
2022-08-17T15:55:13.293Z,1.50
2022-08-17T15:57:40.707Z,1.88
2022-08-17T16:00:09.603Z,1.80
2022-08-17T16:03:46.051Z,1.55
2022-08-17T16:05:30.172Z,1.23
2022-08-17T16:10:34.839Z,1.55
2022-08-17T16:13:03.726Z,1.90
2022-08-17T16:15:31.569Z,1.05
2022-08-17T16:18:00.617Z,1.70
2022-08-17T16:20:27.577Z,1.15
2022-08-17T16:22:54.983Z,1.70
2022-08-17T16:25:52.089Z,1.80
2022-08-17T16:28:16.639Z,1.45
2022-08-17T16:30:43.304Z,1.50
2022-08-17T16:33:11.550Z,1.80
2022-08-17T16:35:38.638Z,1.38
2022-08-17T16:38:05.348Z,2.22
2022-08-17T16:40:37.186Z,1.25
2022-08-17T16:43:06.922Z,1.48
2022-08-17T16:45:36.419Z,1.38
2022-08-17T16:48:08.913Z,1.10
2022-08-17T16:50:37.667Z,1.67
2022-08-17T16:53:10.822Z,2.25
2022-08-17T16:55:37.638Z,1.45
2022-08-17T16:58:08.691Z,1.45
2022-08-17T17:00:36.127Z,1.45
2022-08-17T17:03:17.041Z,1.27
2022-08-17T17:06:18.758Z,1.77
2022-08-17T17:08:48.426Z,1.30
2022-08-17T17:14:03.202Z,1.30
2022-08-17T17:16:46.121Z,1.40
2022-08-17T17:19:41.600Z,1.50
2022-08-17T17:22:26.796Z,2.10
2022-08-17T17:25:11.559Z,1.58
2022-08-17T17:27:52.741Z,1.65
2022-08-17T17:30:22.472Z,2.13
2022-08-17T17:33:28.893Z,1.70
2022-08-17T17:36:01.668Z,2.00
2022-08-17T17:38:37.693Z,2.08
2022-08-17T17:41:12.059Z,2.10
2022-08-17T17:43:39.994Z,1.50
2022-08-17T17:46:27.062Z,1.40
2022-08-17T17:48:59.111Z,1.77
2022-08-17T17:52:09.264Z,2.17
2022-08-17T17:54:49.301Z,2.45
2022-08-17T17:57:22.251Z,1.77
2022-08-17T17:59:54.822Z,1.73
2022-08-17T18:02:51.279Z,2.42
2022-08-17T18:05:44.392Z,2.03
2022-08-17T18:08:32.220Z,1.90
2022-08-17T18:11:11.638Z,2.05
2022-08-17T18:13:56.542Z,1.92
2022-08-17T18:16:29.624Z,2.35
2022-08-17T18:19:02.833Z,2.25
2022-08-17T18:21:44.349Z,1.65
2022-08-17T18:24:13.621Z,1.90
2022-08-17T18:26:45.096Z,1.90
2022-08-17T18:29:13.990Z,2.10
2022-08-17T18:31:44.653Z,1.98
2022-08-17T18:34:47.379Z,1.88
2022-08-17T18:37:33.716Z,1.80
2022-08-17T18:40:20.183Z,2.00
2022-08-17T18:42:58.880Z,2.08
2022-08-17T18:45:33.506Z,2.25
2022-08-17T18:48:00.512Z,1.88
2022-08-17T18:50:43.812Z,2.22
2022-08-17T18:53:36.085Z,1.85
2022-08-17T18:56:23.894Z,1.70
2022-08-17T18:58:56.796Z,1.75
2022-08-17T19:01:46.925Z,2.20
2022-08-17T19:04:32.751Z,2.90
2022-08-17T19:07:18.973Z,1.85
2022-08-17T19:09:50.621Z,1.40
2022-08-17T19:12:29.099Z,2.17
2022-08-17T19:14:57.971Z,1.42
2022-08-17T19:17:55.156Z,2.00
2022-08-17T19:20:37.796Z,2.38
2022-08-17T19:23:14.693Z,1.92
2022-08-17T19:25:49.141Z,2.22
2022-08-17T19:28:27.256Z,1.95
2022-08-17T19:31:05.712Z,1.70
2022-08-17T19:33:34.846Z,1.70
2022-08-17T19:36:28.497Z,1.88
2022-08-17T19:39:12.204Z,1.92
2022-08-17T19:41:43.714Z,1.75
2022-08-17T19:44:38.304Z,2.10
2022-08-17T19:47:54.814Z,2.10
2022-08-17T19:50:38.978Z,1.42
2022-08-17T19:53:36.867Z,1.75
2022-08-17T19:56:31.627Z,2.03
2022-08-17T19:59:24.719Z,1.92
2022-08-17T20:02:00.970Z,2.40
2022-08-17T20:04:31.949Z,2.15
2022-08-17T20:07:07.946Z,2.20
2022-08-17T20:09:54.478Z,2.45
2022-08-17T20:12:30.457Z,2.40
2022-08-17T20:15:13.012Z,1.80
2022-08-17T20:20:21.240Z,1.83
2022-08-17T20:22:57.388Z,2.10
2022-08-17T20:25:32.271Z,1.75
2022-08-17T20:28:27.790Z,1.95
2022-08-17T20:30:55.611Z,1.90
2022-08-17T20:33:38.387Z,2.65
2022-08-17T20:36:04.895Z,2.28
2022-08-17T20:38:39.466Z,2.05
2022-08-17T20:41:12.249Z,2.72
2022-08-17T20:43:38.769Z,2.40
2022-08-17T20:46:08.135Z,2.20
2022-08-17T20:48:40.295Z,2.10
2022-08-17T20:51:27.464Z,2.40
2022-08-17T20:53:53.909Z,1.83
2022-08-17T20:56:49.633Z,2.72
2022-08-17T20:59:25.570Z,2.80
2022-08-17T21:02:17.608Z,2.75
2022-08-17T21:05:30.062Z,2.55
2022-08-17T21:08:21.543Z,2.38
2022-08-17T21:12:03.306Z,3.08
2022-08-17T21:14:38.235Z,4.68
2022-08-17T21:17:29.425Z,3.28
2022-08-17T21:21:12.987Z,3.50
2022-08-17T21:24:35.762Z,3.85
2022-08-17T21:27:39.403Z,3.10
2022-08-17T21:30:30.539Z,3.35
2022-08-17T21:33:25.395Z,3.38
2022-08-17T21:36:15.111Z,3.65
2022-08-17T21:39:10.323Z,3.97
2022-08-17T21:41:58.358Z,4.35
2022-08-17T21:44:50.281Z,4.00
2022-08-17T21:47:43.235Z,3.63
2022-08-17T21:50:30.093Z,3.47
2022-08-17T21:53:40.232Z,4.20
2022-08-17T21:56:38.621Z,4.68
2022-08-17T21:59:32.878Z,4.25
2022-08-17T22:02:25.596Z,4.40
2022-08-17T22:05:14.373Z,4.40
2022-08-17T22:08:08.591Z,4.30
2022-08-17T22:11:05.877Z,4.30
2022-08-17T22:13:57.272Z,3.33
2022-08-17T22:17:22.225Z,4.05
2022-08-17T22:20:14.636Z,3.45
2022-08-17T22:23:19.897Z,3.58
2022-08-17T22:26:12.568Z,3.53
2022-08-17T22:29:02.104Z,3.05
2022-08-17T22:31:58.140Z,4.00
2022-08-17T22:34:44.947Z,3.13
2022-08-17T22:37:31.876Z,2.97
2022-08-17T22:40:31.848Z,3.20
2022-08-17T22:43:26.409Z,2.60
2022-08-17T22:46:15.182Z,2.65
2022-08-17T22:49:02.095Z,3.15
2022-08-17T22:51:49.084Z,2.70
2022-08-17T22:54:54.580Z,2.42
2022-08-17T22:58:04.397Z,2.58
2022-08-17T23:00:51.528Z,2.67
2022-08-17T23:03:55.825Z,2.28
2022-08-17T23:06:42.772Z,2.63
2022-08-17T23:09:29.884Z,2.10
2022-08-17T23:12:23.944Z,2.40
2022-08-17T23:15:15.534Z,2.40
2022-08-17T23:18:04.584Z,1.92
2022-08-17T23:20:54.060Z,1.90
2022-08-17T23:23:41.335Z,2.47
2022-08-17T23:26:29.844Z,2.53
2022-08-17T23:29:16.930Z,2.95
2022-08-17T23:32:07.071Z,2.05
2022-08-17T23:34:53.935Z,2.60
2022-08-17T23:37:41.380Z,2.55
2022-08-17T23:40:29.356Z,2.28
2022-08-17T23:43:23.416Z,1.83
2022-08-17T23:46:12.760Z,1.85
2022-08-17T23:49:00.409Z,2.08
2022-08-17T23:51:48.799Z,2.60
2022-08-17T23:54:43.418Z,2.50
2022-08-17T23:57:33.913Z,1.95
